Time;durP1;ratioP1;P1;durP2;ratioP2;P2;SDS_P1;SDS_P2;PMS_P1;PMS_P2;Temp;Humidity;BMP_temperature;BMP_pressure;BME280_temperature;BME280_humidity;BME280_pressure;Samples;Min_cycle;Max_cycle;Signal;HPM_P1;HPM_P2
2022/03/11 00:02:03;;;;;;;7.97;3.88;;;0.60;23.80;;;;;;4988078;28;34124;-77
2022/03/11 00:04:29;;;;;;;6.40;3.95;;;0.60;23.80;;;;;;5003464;28;35864;-77
2022/03/11 00:06:56;;;;;;;7.18;3.95;;;0.60;23.90;;;;;;5004081;28;34151;-77
2022/03/11 00:09:23;;;;;;;8.80;3.80;;;0.50;24.10;;;;;;5004317;28;34524;-77
2022/03/11 00:11:49;;;;;;;5.38;3.70;;;0.50;24.00;;;;;;5005232;28;34201;-77
2022/03/11 00:14:15;;;;;;;6.82;3.63;;;0.50;24.30;;;;;;5005114;28;35313;-77
2022/03/11 00:16:40;;;;;;;5.18;3.40;;;0.50;24.30;;;;;;5003581;28;34303;-77
2022/03/11 00:19:15;;;;;;;6.85;3.60;;;0.40;24.10;;;;;;4988878;28;34168;-77
2022/03/11 00:21:41;;;;;;;5.95;3.92;;;0.40;24.30;;;;;;4987182;28;34203;-77
2022/03/11 00:24:07;;;;;;;7.50;4.00;;;0.40;24.50;;;;;;5003320;28;35823;-77
2022/03/11 00:26:34;;;;;;;6.70;3.65;;;0.40;24.30;;;;;;4987206;28;34327;-77
2022/03/11 00:29:01;;;;;;;4.80;3.28;;;0.30;24.30;;;;;;4987788;28;34213;-77
2022/03/11 00:31:28;;;;;;;6.28;3.60;;;0.30;24.40;;;;;;5003949;28;34393;-76
2022/03/11 00:33:55;;;;;;;7.97;3.90;;;0.30;24.90;;;;;;5003835;28;35469;-77
2022/03/11 00:36:22;;;;;;;7.53;3.92;;;0.30;24.80;;;;;;5003764;28;34131;-77
2022/03/11 00:38:48;;;;;;;6.45;3.83;;;0.20;24.70;;;;;;4987492;28;34261;-77
2022/03/11 00:41:14;;;;;;;6.40;3.15;;;0.20;24.60;;;;;;4987421;28;34154;-77
2022/03/11 00:43:40;;;;;;;6.75;3.95;;;0.20;25.00;;;;;;5004592;28;34238;-77
2022/03/11 00:46:07;;;;;;;5.07;3.75;;;0.10;24.90;;;;;;4987071;28;34283;-77
2022/03/11 00:48:33;;;;;;;7.10;3.70;;;0.10;25.40;;;;;;4987200;28;34371;-77
2022/03/11 00:50:59;;;;;;;6.65;3.58;;;0.10;25.60;;;;;;5003824;28;34473;-78
2022/03/11 00:53:27;;;;;;;8.45;4.10;;;0.10;25.60;;;;;;5003962;28;35031;-77
2022/03/11 00:55:54;;;;;;;5.47;3.58;;;0.00;25.80;;;;;;4987697;28;34203;-77
2022/03/11 00:58:20;;;;;;;8.13;3.53;;;0.00;25.70;;;;;;5003274;28;34169;-77
2022/03/11 01:00:46;;;;;;;7.05;3.40;;;0.00;26.10;;;;;;5003184;28;34187;-77
2022/03/11 01:03:12;;;;;;;6.30;3.63;;;-0.10;26.00;;;;;;5002582;28;35775;-77
2022/03/11 01:05:38;;;;;;;6.63;3.97;;;-0.10;26.10;;;;;;5002962;28;34048;-77
2022/03/11 01:08:04;;;;;;;5.35;3.85;;;-0.10;26.20;;;;;;5003129;28;34431;-77
2022/03/11 01:10:30;;;;;;;7.10;4.25;;;-0.10;26.40;;;;;;5004229;28;34304;-77
2022/03/11 01:12:56;;;;;;;6.32;3.85;;;-0.10;26.20;;;;;;5003175;28;35830;-77
2022/03/11 01:15:23;;;;;;;5.05;3.40;;;-0.20;26.20;;;;;;5004305;28;34290;-77
2022/03/11 01:17:49;;;;;;;5.63;3.83;;;-0.20;26.30;;;;;;5002953;28;34040;-77
2022/03/11 01:20:15;;;;;;;5.90;4.05;;;-0.20;26.10;;;;;;5004156;28;34008;-77
2022/03/11 01:22:41;;;;;;;6.50;4.20;;;-0.20;25.90;;;;;;5002482;28;35647;-76
2022/03/11 01:25:08;;;;;;;5.93;4.07;;;-0.20;26.10;;;;;;5004218;28;34158;-77
2022/03/11 01:27:36;;;;;;;7.75;4.15;;;-0.20;26.30;;;;;;4986448;28;34344;-77
2022/03/11 01:30:04;;;;;;;6.28;4.07;;;-0.20;26.40;;;;;;5002825;28;34461;-77
2022/03/11 01:32:31;;;;;;;4.90;3.78;;;-0.30;26.60;;;;;;4985750;28;35945;-77
2022/03/11 01:34:57;;;;;;;6.28;3.40;;;-0.30;26.60;;;;;;4986728;28;34387;-77
2022/03/11 01:37:23;;;;;;;7.35;3.80;;;-0.30;26.20;;;;;;5002704;28;34291;-77
2022/03/11 01:39:49;;;;;;;6.97;3.92;;;-0.30;26.30;;;;;;5004743;28;34333;-77
2022/03/11 01:42:15;;;;;;;7.65;4.43;;;-0.30;26.40;;;;;;5003553;28;34582;-77
2022/03/11 01:44:42;;;;;;;6.63;3.55;;;-0.30;26.40;;;;;;5003346;28;34571;-77
2022/03/11 01:47:08;;;;;;;4.72;3.33;;;-0.30;26.40;;;;;;5002341;28;34149;-77
2022/03/11 01:49:34;;;;;;;5.85;3.95;;;-0.40;26.60;;;;;;5003646;28;34156;-77
2022/03/11 01:52:00;;;;;;;5.50;3.70;;;-0.40;26.20;;;;;;5002150;28;36502;-77
2022/03/11 01:54:26;;;;;;;5.65;3.67;;;-0.40;26.30;;;;;;5002710;28;34100;-77
2022/03/11 01:56:52;;;;;;;7.43;4.43;;;-0.50;27.20;;;;;;5002594;28;34152;-76
2022/03/11 01:59:19;;;;;;;7.10;3.58;;;-0.50;26.30;;;;;;5002555;28;34195;-77
2022/03/11 02:01:45;;;;;;;7.47;3.88;;;-0.50;26.60;;;;;;4985482;28;36582;-77
2022/03/11 02:04:11;;;;;;;5.95;3.95;;;-0.50;26.70;;;;;;5002243;28;34246;-76
2022/03/11 02:06:37;;;;;;;7.13;4.32;;;-0.50;26.80;;;;;;5001735;28;34166;-77
2022/03/11 02:09:04;;;;;;;5.75;3.85;;;-0.50;27.60;;;;;;5002200;28;34044;-76
2022/03/11 02:11:30;;;;;;;4.47;3.60;;;-0.60;27.30;;;;;;5001655;28;36514;-76
2022/03/11 02:13:58;;;;;;;7.13;4.15;;;-0.60;26.90;;;;;;5002311;28;34195;-77
2022/03/11 02:16:28;;;;;;;4.45;3.45;;;-0.60;27.00;;;;;;4985829;28;34392;-77
2022/03/11 02:18:55;;;;;;;5.47;3.70;;;-0.60;27.00;;;;;;5002277;28;34148;-76
2022/03/11 02:21:22;;;;;;;5.80;3.92;;;-0.70;27.30;;;;;;5002138;28;34983;-77
2022/03/11 02:23:52;;;;;;;6.05;3.95;;;-0.70;27.20;;;;;;4985621;28;34172;-76
2022/03/11 02:26:21;;;;;;;6.28;3.67;;;-0.70;27.30;;;;;;5001984;28;34174;-77
2022/03/11 02:28:49;;;;;;;6.80;3.90;;;-0.70;27.30;;;;;;4985617;28;34980;-77
2022/03/11 02:31:16;;;;;;;6.40;3.97;;;-0.70;27.20;;;;;;5002432;28;34183;-77
2022/03/11 02:33:42;;;;;;;7.50;4.05;;;-0.70;27.30;;;;;;5001063;28;34451;-76
2022/03/11 02:36:09;;;;;;;6.72;3.60;;;-0.80;27.30;;;;;;5002261;28;34202;-76
2022/03/11 02:38:35;;;;;;;8.18;3.97;;;-0.80;27.60;;;;;;5001513;28;34209;-77
2022/03/11 02:41:01;;;;;;;9.10;4.13;;;-0.80;27.30;;;;;;5001339;28;35971;-77
2022/03/11 02:43:27;;;;;;;6.55;3.95;;;-0.90;27.70;;;;;;5002773;28;34318;-76
2022/03/11 02:45:53;;;;;;;7.70;4.28;;;-0.90;27.60;;;;;;5002959;28;34236;-76
2022/03/11 02:48:19;;;;;;;7.18;3.47;;;-0.90;27.80;;;;;;5001986;28;34192;-76
2022/03/11 02:50:45;;;;;;;5.82;3.78;;;-0.90;27.70;;;;;;4985094;28;35933;-76
2022/03/11 02:53:12;;;;;;;8.20;4.22;;;-0.90;27.90;;;;;;5001352;28;34256;-77
2022/03/11 02:55:38;;;;;;;8.05;4.68;;;-0.90;27.70;;;;;;5001343;28;34252;-77
2022/03/11 02:58:04;;;;;;;7.13;4.22;;;-0.90;27.80;;;;;;5001817;28;34482;-76
2022/03/11 03:00:30;;;;;;;8.13;3.72;;;-0.90;27.80;;;;;;5002209;28;35209;-76
2022/03/11 03:02:56;;;;;;;6.47;3.55;;;-1.00;27.80;;;;;;5001593;28;34218;-76
2022/03/11 03:05:23;;;;;;;7.45;4.35;;;-1.00;27.60;;;;;;5000837;28;34323;-76
2022/03/11 03:07:49;;;;;;;5.72;3.45;;;-1.00;27.90;;;;;;5001402;28;34618;-77
2022/03/11 03:10:15;;;;;;;6.13;2.97;;;-1.00;27.80;;;;;;5000753;28;36253;-77
2022/03/11 03:12:41;;;;;;;5.57;4.00;;;-1.00;27.80;;;;;;5002443;28;34427;-77
2022/03/11 03:15:09;;;;;;;6.25;3.67;;;-1.10;27.80;;;;;;5002569;28;34421;-77
2022/03/11 03:17:36;;;;;;;6.40;4.20;;;-1.10;28.00;;;;;;5001794;28;34214;-77
2022/03/11 03:20:04;;;;;;;7.80;4.55;;;-1.10;28.30;;;;;;5002027;28;35102;-77
2022/03/11 03:22:31;;;;;;;6.95;3.92;;;-1.10;28.10;;;;;;4984631;28;34175;-77
2022/03/11 03:24:57;;;;;;;5.90;3.40;;;-1.10;28.20;;;;;;4984870;28;34231;-76
2022/03/11 03:27:22;;;;;;;5.88;4.25;;;-1.10;28.30;;;;;;5002492;28;34258;-76
2022/03/11 03:29:48;;;;;;;4.43;3.22;;;-1.20;28.40;;;;;;4984562;28;35670;-77
2022/03/11 03:32:14;;;;;;;6.95;4.03;;;-1.20;28.80;;;;;;4985660;28;34383;-77
2022/03/11 03:34:40;;;;;;;5.60;4.05;;;-1.20;28.70;;;;;;5004509;28;34060;-76
2022/03/11 03:37:08;;;;;;;7.43;3.75;;;-1.20;28.60;;;;;;4988127;28;34191;-77
2022/03/11 03:39:35;;;;;;;5.47;3.45;;;-1.20;28.70;;;;;;5004000;28;36450;-77
2022/03/11 03:42:02;;;;;;;7.32;4.00;;;-1.20;28.50;;;;;;5004636;28;34222;-77
2022/03/11 03:44:28;;;;;;;7.18;4.07;;;-1.20;28.80;;;;;;5006554;28;34110;-77
2022/03/11 03:46:54;;;;;;;6.70;3.63;;;-1.20;28.50;;;;;;5005184;28;34032;-77
2022/03/11 03:49:20;;;;;;;5.43;3.78;;;-1.20;28.50;;;;;;5005604;28;35391;-77
2022/03/11 03:51:47;;;;;;;8.55;3.83;;;-1.20;28.60;;;;;;5003785;28;34278;-77
2022/03/11 03:54:13;;;;;;;5.50;3.50;;;-1.20;28.70;;;;;;5005527;28;34374;-77
2022/03/11 03:56:41;;;;;;;6.30;3.72;;;-1.20;28.60;;;;;;5003882;28;34240;-76
2022/03/11 03:59:09;;;;;;;5.15;4.18;;;-1.30;28.80;;;;;;4987270;28;35846;-77
2022/03/11 04:01:36;;;;;;;10.15;4.25;;;-1.30;28.70;;;;;;4987884;28;34230;-77
2022/03/11 04:04:04;;;;;;;6.05;3.42;;;-1.30;29.10;;;;;;4987909;28;34152;-77
2022/03/11 04:06:30;;;;;;;6.28;3.95;;;-1.30;29.10;;;;;;5003871;28;34290;-77
2022/03/11 04:08:57;;;;;;;8.60;4.28;;;-1.30;28.80;;;;;;5003479;28;35917;-77
2022/03/11 04:11:24;;;;;;;6.95;3.67;;;-1.30;29.00;;;;;;5003981;28;34167;-77
2022/03/11 04:13:50;;;;;;;7.72;3.40;;;-1.30;29.00;;;;;;5003804;28;34223;-77
2022/03/11 04:16:17;;;;;;;5.88;3.47;;;-1.30;29.10;;;;;;4987811;28;34054;-77
2022/03/11 04:18:43;;;;;;;5.88;4.00;;;-1.40;29.10;;;;;;5005064;28;35135;-77
2022/03/11 04:21:09;;;;;;;6.75;3.88;;;-1.40;28.80;;;;;;5003813;28;34309;-77
2022/03/11 04:23:35;;;;;;;8.63;4.25;;;-1.40;29.10;;;;;;5003426;28;34305;-77
2022/03/11 04:26:01;;;;;;;6.40;3.63;;;-1.40;29.10;;;;;;5003625;28;34423;-77
2022/03/11 04:28:27;;;;;;;6.30;3.45;;;-1.40;29.00;;;;;;5003267;28;35601;-77
2022/03/11 04:30:54;;;;;;;5.25;3.30;;;-1.40;29.30;;;;;;5003640;28;34091;-77
2022/03/11 04:33:21;;;;;;;4.82;3.35;;;-1.50;29.40;;;;;;5004885;28;34225;-76
2022/03/11 04:35:47;;;;;;;5.82;3.42;;;-1.50;29.20;;;;;;5002819;28;34235;-77
2022/03/11 04:38:13;;;;;;;7.03;4.18;;;-1.50;29.10;;;;;;5003553;28;36328;-77
2022/03/11 04:40:39;;;;;;;5.03;2.97;;;-1.50;29.20;;;;;;5003323;28;34167;-76
2022/03/11 04:43:05;;;;;;;5.80;3.60;;;-1.50;29.50;;;;;;5004113;28;34348;-77
2022/03/11 04:45:31;;;;;;;5.80;3.50;;;-1.50;29.20;;;;;;4986996;28;34497;-77
2022/03/11 04:47:57;;;;;;;6.63;4.13;;;-1.50;29.30;;;;;;5004220;28;35193;-77
2022/03/11 04:50:42;;;;;;;6.82;3.58;;;-1.50;29.70;;;;;;5003242;28;34144;-77
2022/03/11 04:53:07;;;;;;;4.82;3.42;;;-1.50;29.30;;;;;;5004882;28;34208;-77
2022/03/11 04:55:34;;;;;;;5.60;4.13;;;-1.60;29.90;;;;;;5003675;28;34497;-77
2022/03/11 04:58:00;;;;;;;10.23;4.13;;;-1.60;29.70;;;;;;5003373;28;35825;-77
2022/03/11 05:00:26;;;;;;;6.15;3.38;;;-1.60;29.90;;;;;;5004219;28;34056;-77
2022/03/11 05:02:52;;;;;;;6.47;4.07;;;-1.60;29.40;;;;;;5002859;28;34524;-77
2022/03/11 05:05:18;;;;;;;6.60;3.67;;;-1.60;29.70;;;;;;4986757;28;34563;-77
2022/03/11 05:07:44;;;;;;;7.50;4.05;;;-1.60;29.60;;;;;;5004717;28;34325;-78
2022/03/11 05:10:14;;;;;;;6.93;4.07;;;-1.60;29.70;;;;;;5002884;28;34149;-77
2022/03/11 05:12:41;;;;;;;17.52;3.85;;;-1.60;29.70;;;;;;4987040;28;34232;-77
2022/03/11 05:15:08;;;;;;;6.40;3.80;;;-1.60;30.20;;;;;;5004405;28;34086;-77
2022/03/11 05:17:35;;;;;;;5.20;3.45;;;-1.60;29.80;;;;;;5002827;28;34336;-77
2022/03/11 05:20:03;;;;;;;6.03;3.75;;;-1.60;29.90;;;;;;5003184;28;34313;-77
2022/03/11 05:22:30;;;;;;;5.80;3.40;;;-1.60;30.00;;;;;;5004134;28;34150;-77
2022/03/11 05:24:56;;;;;;;5.22;3.38;;;-1.70;30.60;;;;;;5002684;28;34223;-77
2022/03/11 05:27:22;;;;;;;9.27;3.58;;;-1.70;30.40;;;;;;5002511;28;35455;-77
2022/03/11 05:29:48;;;;;;;7.88;3.75;;;-1.70;30.50;;;;;;5002301;28;34218;-77
2022/03/11 05:32:15;;;;;;;5.80;3.40;;;-1.70;30.40;;;;;;4986807;28;34311;-77
2022/03/11 05:34:42;;;;;;;8.43;3.85;;;-1.70;30.20;;;;;;5002056;28;34247;-77
2022/03/11 05:37:10;;;;;;;8.63;3.63;;;-1.70;30.10;;;;;;4969970;28;36414;-77
2022/03/11 05:39:36;;;;;;;5.85;3.78;;;-1.60;30.10;;;;;;5003577;28;34333;-77
2022/03/11 05:42:03;;;;;;;6.25;3.40;;;-1.70;30.50;;;;;;4986417;28;34386;-77
2022/03/11 05:44:29;;;;;;;5.15;3.63;;;-1.70;30.70;;;;;;5003236;28;34469;-77
2022/03/11 05:46:55;;;;;;;5.70;3.47;;;-1.70;30.80;;;;;;5001672;28;35814;-77
2022/03/11 05:49:22;;;;;;;6.85;3.88;;;-1.70;30.30;;;;;;5002145;28;34182;-77
2022/03/11 05:51:48;;;;;;;6.65;3.67;;;-1.70;30.20;;;;;;4986212;28;34270;-77
2022/03/11 05:54:14;;;;;;;4.93;3.40;;;-1.60;30.30;;;;;;5001677;28;34478;-77
2022/03/11 05:56:41;;;;;;;6.07;3.63;;;-1.60;30.40;;;;;;5001871;28;35619;-77
2022/03/11 05:59:07;;;;;;;6.07;3.80;;;-1.60;30.30;;;;;;5002102;28;34278;-77
2022/03/11 06:01:37;;;;;;;5.88;3.83;;;-1.60;30.40;;;;;;5002903;28;34390;-77
2022/03/11 06:04:04;;;;;;;8.25;4.20;;;-1.60;30.60;;;;;;4969886;28;34339;-77
2022/03/11 06:06:32;;;;;;;5.20;3.35;;;-1.60;30.50;;;;;;4985197;28;35883;-77
2022/03/11 06:08:58;;;;;;;6.50;3.92;;;-1.60;30.50;;;;;;5001952;28;34554;-77
2022/03/11 06:11:24;;;;;;;6.63;3.97;;;-1.60;30.10;;;;;;5002216;28;34380;-77
2022/03/11 06:13:50;;;;;;;6.15;3.38;;;-1.60;30.40;;;;;;5001808;28;34277;-77
2022/03/11 06:16:16;;;;;;;6.68;3.85;;;-1.50;30.70;;;;;;5002819;28;34953;-77
2022/03/11 06:18:42;;;;;;;3.92;3.35;;;-1.50;30.80;;;;;;4985315;28;34310;-77
2022/03/11 06:21:08;;;;;;;5.05;3.47;;;-1.50;30.50;;;;;;5001780;28;34282;-77
2022/03/11 06:23:36;;;;;;;5.50;3.63;;;-1.50;30.50;;;;;;5002178;28;34423;-77
2022/03/11 06:26:03;;;;;;;7.30;4.15;;;-1.40;30.90;;;;;;5002204;28;34267;-77
2022/03/11 06:28:29;;;;;;;6.72;3.88;;;-1.40;30.90;;;;;;5001443;28;34170;-77
2022/03/11 06:30:56;;;;;;;5.85;3.88;;;-1.40;30.50;;;;;;5002962;28;34269;-77
2022/03/11 06:33:22;;;;;;;7.53;4.07;;;-1.30;30.50;;;;;;5003311;28;34117;-77
2022/03/11 06:35:50;;;;;;;10.90;4.53;;;-1.20;30.20;;;;;;5002819;28;35860;-77
2022/03/11 06:38:16;;;;;;;6.25;3.97;;;-1.10;30.40;;;;;;4985351;28;34402;-77
2022/03/11 06:40:42;;;;;;;8.18;4.25;;;-0.90;30.40;;;;;;5001546;28;34094;-78
2022/03/11 06:43:08;;;;;;;7.85;4.43;;;-0.80;30.20;;;;;;5001840;28;34237;-77
2022/03/11 06:45:34;;;;;;;9.82;4.25;;;-0.60;29.80;;;;;;5001401;28;35536;-78
2022/03/11 06:48:00;;;;;;;6.53;3.97;;;-0.40;29.60;;;;;;4985473;28;34149;-78
2022/03/11 06:50:26;;;;;;;9.07;4.03;;;-0.30;29.40;;;;;;4985281;28;34472;-77
2022/03/11 06:52:53;;;;;;;8.10;4.03;;;-0.20;29.00;;;;;;5001751;28;34613;-78
2022/03/11 06:55:19;;;;;;;7.85;4.15;;;0.00;28.60;;;;;;5001740;28;35611;-78
2022/03/11 06:57:45;;;;;;;8.00;4.07;;;0.20;28.60;;;;;;5001481;28;34495;-78
2022/03/11 07:00:13;;;;;;;9.32;4.95;;;0.30;28.20;;;;;;5002784;28;34242;-78
2022/03/11 07:02:39;;;;;;;7.82;4.75;;;0.50;28.30;;;;;;5001589;28;34222;-77
2022/03/11 07:05:07;;;;;;;9.63;4.30;;;0.70;27.90;;;;;;5002357;28;34204;-78
2022/03/11 07:07:33;;;;;;;11.20;4.78;;;0.90;27.50;;;;;;4968655;28;34126;-78
2022/03/11 07:10:00;;;;;;;14.60;4.80;;;1.20;27.10;;;;;;4969180;28;34151;-78
2022/03/11 07:12:28;;;;;;;17.17;5.85;;;1.50;27.20;;;;;;4985840;28;34143;-78
2022/03/11 07:14:54;;;;;;;7.63;4.85;;;1.70;26.80;;;;;;4986415;28;35969;-78
2022/03/11 07:17:20;;;;;;;8.25;5.05;;;2.00;26.40;;;;;;4986917;28;34373;-78
2022/03/11 07:19:46;;;;;;;12.43;5.88;;;2.20;25.70;;;;;;4970500;28;34268;-78
2022/03/11 07:22:12;;;;;;;13.43;4.93;;;2.50;25.30;;;;;;5019367;28;34287;-79
2022/03/11 07:24:39;;;;;;;9.25;4.93;;;2.70;25.20;;;;;;4953937;28;36656;-78
2022/03/11 07:27:05;;;;;;;9.00;4.80;;;2.90;25.10;;;;;;4970224;28;34227;-79
2022/03/11 07:29:32;;;;;;;7.47;4.75;;;3.10;24.90;;;;;;5002845;28;34039;-79
2022/03/11 07:31:58;;;;;;;7.95;4.97;;;3.30;24.60;;;;;;5003493;28;34207;-78
2022/03/11 07:34:26;;;;;;;7.00;4.97;;;3.40;24.30;;;;;;4969330;28;35682;-78
2022/03/11 07:36:52;;;;;;;11.45;5.05;;;3.60;24.30;;;;;;4986167;28;34227;-78
2022/03/11 07:39:18;;;;;;;10.27;4.72;;;3.90;24.20;;;;;;4969432;28;34162;-78
2022/03/11 07:41:44;;;;;;;12.63;4.88;;;4.10;24.10;;;;;;4985437;28;34116;-78
2022/03/11 07:44:11;;;;;;;6.90;4.57;;;4.30;23.90;;;;;;4985230;28;35612;-78
2022/03/11 07:46:37;;;;;;;6.65;4.68;;;4.60;23.80;;;;;;5003337;28;34061;-78
2022/03/11 07:49:03;;;;;;;7.57;4.85;;;4.70;23.80;;;;;;4968798;28;34224;-77
2022/03/11 07:51:30;;;;;;;12.90;5.20;;;4.90;23.80;;;;;;4984978;28;34298;-76
2022/03/11 07:53:57;;;;;;;15.68;5.90;;;5.10;23.80;;;;;;4984577;28;35729;-77
2022/03/11 07:56:24;;;;;;;7.85;5.13;;;5.30;23.80;;;;;;4985299;28;34386;-76
2022/03/11 07:58:50;;;;;;;11.82;4.90;;;5.50;23.70;;;;;;5017926;28;34220;-76
2022/03/11 08:01:16;;;;;;;8.35;4.75;;;5.60;23.50;;;;;;5017517;28;34441;-77
2022/03/11 08:03:43;;;;;;;12.05;6.07;;;5.80;23.30;;;;;;4984882;28;35974;-76
2022/03/11 08:06:10;;;;;;;8.80;5.60;;;6.00;23.60;;;;;;5001893;28;34248;-76
2022/03/11 08:08:37;;;;;;;11.48;5.45;;;6.20;23.70;;;;;;4985070;28;34135;-76
2022/03/11 08:11:05;;;;;;;11.30;4.97;;;6.40;23.80;;;;;;4985133;28;34226;-77
2022/03/11 08:13:31;;;;;;;8.40;4.78;;;6.60;23.70;;;;;;5001915;28;34177;-76
2022/03/11 08:15:57;;;;;;;10.25;5.22;;;6.80;23.80;;;;;;4984438;28;34333;-76
2022/03/11 08:18:23;;;;;;;9.52;5.82;;;7.00;23.60;;;;;;4986447;28;34396;-76
2022/03/11 08:20:49;;;;;;;13.68;5.20;;;7.30;23.70;;;;;;4988738;28;34428;-76
2022/03/11 08:23:15;;;;;;;11.65;5.20;;;7.60;23.60;;;;;;4988180;28;35629;-76
2022/03/11 08:25:42;;;;;;;8.38;4.88;;;7.80;23.10;;;;;;4987633;28;34319;-75
2022/03/11 08:28:10;;;;;;;6.45;4.45;;;8.10;22.30;;;;;;5004423;28;34423;-75
2022/03/11 08:30:38;;;;;;;8.77;4.90;;;8.40;20.80;;;;;;4987338;28;34221;-75
2022/03/11 08:33:05;;;;;;;7.40;4.95;;;8.60;19.90;;;;;;4970841;28;36728;-76
2022/03/11 08:35:31;;;;;;;6.25;4.15;;;8.80;20.20;;;;;;4971213;28;34125;-75
2022/03/11 08:37:58;;;;;;;7.63;4.57;;;9.10;19.80;;;;;;4987257;28;34230;-75
2022/03/11 08:40:26;;;;;;;7.32;5.03;;;9.30;19.60;;;;;;4971456;28;34231;-75
2022/03/11 08:42:53;;;;;;;8.73;5.18;;;9.60;18.00;;;;;;4987256;28;35086;-76
2022/03/11 08:45:21;;;;;;;8.88;4.78;;;9.80;18.90;;;;;;4987268;28;34349;-75
2022/03/11 08:47:49;;;;;;;7.28;4.95;;;10.10;18.50;;;;;;5004548;28;34554;-75
2022/03/11 08:50:17;;;;;;;9.05;5.53;;;10.30;17.80;;;;;;4971638;28;34212;-76
2022/03/11 08:52:43;;;;;;;7.90;5.03;;;10.40;17.80;;;;;;4970370;28;35583;-76
2022/03/11 08:55:10;;;;;;;7.75;5.30;;;10.60;17.90;;;;;;4987405;28;34414;-76
2022/03/11 08:57:37;;;;;;;6.32;4.40;;;10.70;17.30;;;;;;4986749;28;34241;-75
2022/03/11 09:00:05;;;;;;;6.78;4.65;;;10.90;17.20;;;;;;5004714;28;34174;-76
2022/03/11 09:02:32;;;;;;;8.10;5.00;;;11.00;16.00;;;;;;4971185;28;35516;-76
2022/03/11 09:04:57;;;;;;;8.75;5.43;;;11.20;16.50;;;;;;5003956;28;34158;-76
2022/03/11 09:07:29;;;;;;;7.55;5.20;;;11.30;16.40;;;;;;4971389;28;34656;-76
2022/03/11 09:09:55;;;;;;;8.98;4.72;;;11.50;16.20;;;;;;5020244;28;34578;-76
2022/03/11 09:12:22;;;;;;;11.15;4.63;;;11.60;15.90;;;;;;4987808;28;35637;-76
2022/03/11 09:14:48;;;;;;;7.72;4.82;;;11.80;15.90;;;;;;4988022;28;34153;-76
2022/03/11 09:17:14;;;;;;;8.52;5.28;;;11.90;15.70;;;;;;4988558;28;34218;-76
2022/03/11 09:19:42;;;;;;;7.60;4.93;;;12.20;15.40;;;;;;5004737;28;34153;-76
2022/03/11 09:22:08;;;;;;;9.82;5.38;;;12.30;15.50;;;;;;4986482;28;35714;-76
2022/03/11 09:24:34;;;;;;;7.00;4.95;;;12.60;15.40;;;;;;5004344;28;34190;-76
2022/03/11 09:27:00;;;;;;;7.85;5.32;;;12.90;15.10;;;;;;5005487;28;34217;-76
2022/03/11 09:29:28;;;;;;;11.60;5.53;;;13.10;14.90;;;;;;4988191;28;34119;-75
2022/03/11 09:31:56;;;;;;;7.35;5.28;;;13.10;14.40;;;;;;4987760;28;36767;-76
2022/03/11 09:34:23;;;;;;;6.25;4.90;;;13.20;14.10;;;;;;4987805;28;34261;-76
2022/03/11 09:36:51;;;;;;;9.40;6.18;;;13.30;14.40;;;;;;5004822;28;34512;-76
2022/03/11 09:39:17;;;;;;;8.30;5.07;;;13.50;14.10;;;;;;4986669;28;34316;-76
2022/03/11 09:41:45;;;;;;;7.95;5.60;;;13.60;13.90;;;;;;4969950;28;35785;-76
2022/03/11 09:44:13;;;;;;;8.35;5.25;;;13.80;13.60;;;;;;4970838;28;34229;-76
2022/03/11 09:46:41;;;;;;;8.43;5.53;;;13.90;12.40;;;;;;4986548;28;34244;-76
2022/03/11 09:49:08;;;;;;;9.05;5.28;;;14.10;13.20;;;;;;4986220;28;34215;-76
2022/03/11 09:51:35;;;;;;;9.85;5.18;;;14.30;12.90;;;;;;5019260;28;36845;-76
2022/03/11 09:54:02;;;;;;;9.82;5.50;;;14.40;12.60;;;;;;4986595;28;34210;-76
2022/03/11 09:56:29;;;;;;;10.18;5.53;;;14.60;13.10;;;;;;4969826;28;34323;-76
2022/03/11 09:58:55;;;;;;;9.75;5.72;;;14.80;13.00;;;;;;5004186;28;34162;-76
2022/03/11 10:01:21;;;;;;;9.00;5.85;;;14.90;12.70;;;;;;4985785;28;35511;-76
2022/03/11 10:03:48;;;;;;;8.57;5.63;;;15.00;12.60;;;;;;4985826;28;34401;-76
2022/03/11 10:06:14;;;;;;;10.55;5.97;;;15.10;12.00;;;;;;5003859;28;34418;-76
2022/03/11 10:08:44;;;;;;;7.55;5.50;;;15.20;12.20;;;;;;4970773;28;34424;-76
2022/03/11 10:11:26;;;;;;;9.90;5.30;;;15.20;11.30;;;;;;5018746;28;36459;-76
2022/03/11 10:13:54;;;;;;;8.77;5.43;;;15.30;7.60;;;;;;5003912;28;34301;-76
2022/03/11 10:16:26;;;;;;;11.02;6.13;;;15.30;11.50;;;;;;4986020;28;34243;-76
2022/03/11 10:18:55;;;;;;;8.15;5.72;;;15.50;9.70;;;;;;4986284;28;34401;-76
2022/03/11 10:21:37;;;;;;;11.63;5.30;;;15.70;10.90;;;;;;4969718;28;36112;-75
2022/03/11 10:24:07;;;;;;;10.57;5.10;;;15.80;11.50;;;;;;4985981;28;34071;-75
2022/03/11 10:26:36;;;;;;;8.35;5.80;;;16.00;10.40;;;;;;4985565;28;34179;-77
2022/03/11 10:29:05;;;;;;;12.30;6.30;;;16.00;10.90;;;;;;5003371;28;34256;-75
2022/03/11 10:31:33;;;;;;;9.93;5.07;;;16.10;10.60;;;;;;4986586;28;34193;-76
2022/03/11 10:34:30;;;;;;;7.03;4.95;;;16.20;11.10;;;;;;4986431;28;34233;-76
2022/03/11 10:36:59;;;;;;;9.50;5.57;;;16.40;7.10;;;;;;4986245;28;34514;-76
2022/03/11 10:39:29;;;;;;;7.38;5.43;;;16.50;10.30;;;;;;4970358;28;34140;-75
2022/03/11 10:41:58;;;;;;;12.82;5.95;;;16.60;9.90;;;;;;4953446;28;35522;-76
2022/03/11 10:44:26;;;;;;;7.07;5.22;;;16.70;10.70;;;;;;5003935;28;34301;-75
2022/03/11 10:46:54;;;;;;;9.35;5.53;;;16.70;10.50;;;;;;4970182;28;34408;-75
2022/03/11 10:49:24;;;;;;;10.85;5.32;;;16.80;10.80;;;;;;4986132;28;34300;-76
2022/03/11 10:51:52;;;;;;;8.43;5.55;;;16.90;10.40;;;;;;4984863;28;36395;-76
2022/03/11 10:54:18;;;;;;;8.48;5.70;;;17.00;10.00;;;;;;4986009;28;34236;-76
2022/03/11 10:56:44;;;;;;;10.18;5.57;;;17.10;10.20;;;;;;4986195;28;34280;-76
2022/03/11 10:59:27;;;;;;;9.90;5.78;;;16.90;10.00;;;;;;4987339;28;34393;-76
2022/03/11 11:01:55;;;;;;;9.70;5.70;;;17.00;7.50;;;;;;4969920;28;35778;-75
2022/03/11 11:04:22;;;;;;;31.10;6.60;;;17.00;10.70;;;;;;4968841;28;34246;-76
2022/03/11 11:06:48;;;;;;;11.80;5.35;;;17.10;10.80;;;;;;4969625;28;34338;-76
2022/03/11 11:09:17;;;;;;;7.93;5.53;;;17.20;10.80;;;;;;4985638;28;34404;-75
2022/03/11 11:11:43;;;;;;;8.20;5.20;;;17.40;10.50;;;;;;5002565;28;34202;-76
2022/03/11 11:14:10;;;;;;;13.43;4.78;;;17.40;10.50;;;;;;4986194;28;34081;-77
2022/03/11 11:16:40;;;;;;;9.93;5.43;;;17.50;8.90;;;;;;5003666;28;34245;-75
2022/03/11 11:19:14;;;;;;;8.70;5.53;;;17.50;9.90;;;;;;4970089;28;34547;-75
2022/03/11 11:21:44;;;;;;;8.10;5.22;;;17.60;7.80;;;;;;4969010;28;35599;-75
2022/03/11 11:24:14;;;;;;;7.50;5.80;;;17.70;8.30;;;;;;4970026;28;34173;-76
2022/03/11 11:26:44;;;;;;;8.13;5.22;;;17.80;9.40;;;;;;4985427;28;34174;-75
2022/03/11 11:29:10;;;;;;;8.45;5.88;;;17.90;10.00;;;;;;4985761;28;34273;-75
2022/03/11 11:31:37;;;;;;;12.35;5.55;;;18.00;10.10;;;;;;4984938;28;35690;-76
2022/03/11 11:34:03;;;;;;;8.07;5.63;;;18.00;9.40;;;;;;4969119;28;34401;-76
2022/03/11 11:36:38;;;;;;;8.57;5.55;;;18.10;9.90;;;;;;4985206;28;34195;-75
2022/03/11 11:39:06;;;;;;;7.28;5.25;;;18.10;6.50;;;;;;4986031;28;34192;-75
2022/03/11 11:41:33;;;;;;;8.80;5.75;;;18.20;8.20;;;;;;5002720;28;34159;-75
2022/03/11 11:44:05;;;;;;;8.45;5.72;;;18.20;9.00;;;;;;4953875;28;34228;-76
2022/03/11 11:46:33;;;;;;;10.63;5.63;;;18.30;8.20;;;;;;4968918;28;34073;-76
2022/03/11 11:49:03;;;;;;;12.40;5.53;;;18.30;8.30;;;;;;4985625;28;34419;-75
2022/03/11 11:51:53;;;;;;;9.18;5.80;;;18.40;7.90;;;;;;4968530;28;36755;-76
2022/03/11 11:54:32;;;;;;;9.00;5.38;;;18.50;5.10;;;;;;4975511;28;34416;-75
2022/03/11 11:57:01;;;;;;;6.93;4.85;;;18.50;5.60;;;;;;4973036;28;34378;-75
2022/03/11 11:59:32;;;;;;;11.70;5.55;;;18.50;9.00;;;;;;4987771;28;34454;-76
2022/03/11 12:02:02;;;;;;;8.95;4.57;;;18.60;8.00;;;;;;4972708;28;35968;-80
2022/03/11 12:04:35;;;;;;;8.05;4.85;;;18.50;7.60;;;;;;4987660;28;34291;-75
2022/03/11 12:07:09;;;;;;;7.85;4.93;;;18.40;7.90;;;;;;4988064;28;34219;-75
2022/03/11 12:09:53;;;;;;;9.88;5.35;;;18.50;8.20;;;;;;4973172;28;34247;-74
2022/03/11 12:13:00;;;;;;;8.40;4.28;;;18.50;6.20;;;;;;4987806;28;35613;-75
2022/03/11 12:15:27;;;;;;;9.20;5.05;;;18.60;4.10;;;;;;4979165;28;34170;-75
2022/03/11 12:17:58;;;;;;;8.85;4.60;;;18.60;8.40;;;;;;5006421;28;34067;-75
2022/03/11 12:20:31;;;;;;;8.00;4.78;;;18.50;7.70;;;;;;4990833;28;34105;-76
2022/03/11 12:23:18;;;;;;;9.23;4.93;;;18.60;8.00;;;;;;4988885;28;35572;-75
2022/03/11 12:25:50;;;;;;;6.30;4.65;;;18.70;6.80;;;;;;4988770;28;34165;-75
2022/03/11 12:28:32;;;;;;;6.90;4.68;;;18.90;7.90;;;;;;4989191;28;34115;-75
2022/03/11 12:31:01;;;;;;;6.75;5.15;;;18.90;5.20;;;;;;4988932;28;34469;-76
2022/03/11 12:33:38;;;;;;;6.28;4.50;;;18.90;7.30;;;;;;4989006;28;34276;-75
2022/03/11 12:36:08;;;;;;;8.35;4.32;;;18.80;5.40;;;;;;4988995;28;34231;-75
2022/03/11 12:38:37;;;;;;;7.35;4.88;;;18.80;7.70;;;;;;4987595;28;34294;-75
2022/03/11 12:41:07;;;;;;;5.75;3.95;;;18.80;7.70;;;;;;4972373;28;34167;-75
2022/03/11 12:43:34;;;;;;;6.28;4.68;;;18.70;6.70;;;;;;4972010;28;35647;-76
2022/03/11 12:46:00;;;;;;;5.82;4.30;;;18.70;8.20;;;;;;5006845;28;34330;-76
2022/03/11 12:48:29;;;;;;;7.03;4.38;;;18.50;7.80;;;;;;4989551;28;34455;-76
2022/03/11 12:50:56;;;;;;;7.68;4.70;;;18.50;7.00;;;;;;4971563;28;34230;-75
2022/03/11 12:53:23;;;;;;;8.40;4.78;;;18.50;8.10;;;;;;4988689;28;36568;-75